Time;durP1;ratioP1;P1;durP2;ratioP2;P2;SDS_P1;SDS_P2;PMS_P1;PMS_P2;Temp;Humidity;BMP_temperature;BMP_pressure;BME280_temperature;BME280_humidity;BME280_pressure;Samples;Min_cycle;Max_cycle;Signal;HPM_P1;HPM_P2
2023/09/07 00:00:23;;;;;;;0.20;0.20;;;;;;;19.78;100.00;101997.22;2070865;28;20236;-68
2023/09/07 00:01:24;;;;;;;0.23;0.23;;;;;;;19.72;100.00;101998.28;2070324;28;20723;-68
2023/09/07 00:02:24;;;;;;;0.10;0.10;;;;;;;19.72;100.00;102001.09;2070948;28;20196;-68
2023/09/07 00:03:25;;;;;;;0.30;0.30;;;;;;;19.69;100.00;101994.34;2070788;28;20673;-68
2023/09/07 00:04:25;;;;;;;0.40;0.40;;;;;;;19.67;100.00;101996.06;2071545;28;20667;-68
2023/09/07 00:05:26;;;;;;;0.23;0.23;;;;;;;19.68;100.00;101995.59;2071023;28;20190;-68
2023/09/07 00:06:26;;;;;;;0.30;0.30;;;;;;;19.65;100.00;101998.56;2070802;28;20202;-68
2023/09/07 00:07:27;;;;;;;0.20;0.20;;;;;;;19.66;100.00;102000.91;2070868;28;20287;-68
2023/09/07 00:08:27;;;;;;;0.30;0.30;;;;;;;19.66;100.00;102002.94;2074450;28;20643;-68
2023/09/07 00:09:27;;;;;;;0.43;0.20;;;;;;;19.64;100.00;102006.22;2075724;28;20668;-68
2023/09/07 00:10:28;;;;;;;0.50;0.37;;;;;;;19.65;100.00;101999.34;2070762;28;20709;-68
2023/09/07 00:11:29;;;;;;;0.30;0.27;;;;;;;19.64;100.00;102000.59;2070934;28;20250;-68
2023/09/07 00:12:30;;;;;;;0.20;0.20;;;;;;;19.65;100.00;101995.75;2071640;28;20327;-68
2023/09/07 00:13:31;;;;;;;0.20;0.20;;;;;;;19.64;100.00;101994.97;2071166;28;20460;-68
2023/09/07 00:14:31;;;;;;;0.10;0.10;;;;;;;19.68;100.00;102001.25;2070743;28;20191;-68
2023/09/07 00:15:37;;;;;;;1.13;0.97;;;;;;;19.68;100.00;102003.25;2070713;28;20255;-68
2023/09/07 00:16:38;;;;;;;0.10;0.10;;;;;;;19.39;100.00;101958.59;2070619;28;20247;-68
2023/09/07 00:17:38;;;;;;;0.10;0.10;;;;;;;19.43;100.00;101970.50;2070718;28;20455;-68
2023/09/07 00:18:38;;;;;;;0.23;0.20;;;;;;;19.64;100.00;101997.78;2070617;28;20537;-68
2023/09/07 00:19:39;;;;;;;0.60;0.33;;;;;;;19.66;100.00;102000.91;2070115;28;20193;-68
2023/09/07 00:20:40;;;;;;;0.23;0.20;;;;;;;19.69;100.00;101999.19;2070009;28;20196;-68
2023/09/07 00:21:40;;;;;;;0.20;0.20;;;;;;;19.72;100.00;102001.09;2079132;28;20181;-68
2023/09/07 00:22:41;;;;;;;0.20;0.20;;;;;;;19.56;100.00;101984.47;2070913;28;20440;-68
2023/09/07 00:23:41;;;;;;;0.13;0.10;;;;;;;19.45;100.00;101965.19;2070846;28;20189;-68
2023/09/07 00:24:42;;;;;;;0.57;0.57;;;;;;;19.67;100.00;101996.06;2070719;28;20608;-68
2023/09/07 00:25:42;;;;;;;0.40;0.30;;;;;;;19.73;100.00;101997.03;2070833;28;20213;-68
2023/09/07 00:26:43;;;;;;;0.40;0.40;;;;;;;19.74;100.00;102015.47;2072971;28;20214;-68
2023/09/07 00:27:43;;;;;;;0.10;0.10;;;;;;;19.74;100.00;101999.38;2077156;28;20181;-68
2023/09/07 00:28:43;;;;;;;0.10;0.10;;;;;;;19.74;100.00;102002.19;2071408;28;20648;-68
2023/09/07 00:29:44;;;;;;;0.10;0.10;;;;;;;19.54;100.00;101978.53;2071634;28;20182;-68
2023/09/07 00:30:44;;;;;;;0.37;0.37;;;;;;;19.74;100.00;102002.19;2071447;28;20197;-68
2023/09/07 00:31:45;;;;;;;0.37;0.27;;;;;;;19.76;100.00;102008.13;2071021;28;20204;-68
2023/09/07 00:32:45;;;;;;;0.20;0.20;;;;;;;19.76;100.00;102007.38;2070615;28;20731;-68
2023/09/07 00:33:46;;;;;;;0.23;0.23;;;;;;;19.76;100.00;101996.13;2074439;28;20664;-68
2023/09/07 00:34:46;;;;;;;0.40;0.40;;;;;;;19.75;100.00;102008.63;2075477;28;20296;-68
2023/09/07 00:35:47;;;;;;;0.10;0.10;;;;;;;19.75;100.00;102003.75;2070497;28;20182;-68
2023/09/07 00:36:47;;;;;;;0.40;0.40;;;;;;;19.49;100.00;101963.03;2070801;28;20195;-68
2023/09/07 00:37:47;;;;;;;0.20;0.20;;;;;;;19.76;100.00;102007.38;2078514;28;20181;-68
2023/09/07 00:38:48;;;;;;;0.10;0.10;;;;;;;19.74;100.00;102002.19;2070706;28;20647;-68
2023/09/07 00:39:48;;;;;;;0.00;0.00;;;;;;;19.66;100.00;101991.69;2070572;28;20204;-68
2023/09/07 00:40:49;;;;;;;0.20;0.20;;;;;;;19.71;100.00;102000.28;2071372;28;20203;-68
2023/09/07 00:41:49;;;;;;;0.30;0.30;;;;;;;19.72;100.00;102003.91;2070893;28;20200;-68
2023/09/07 00:42:50;;;;;;;0.47;0.47;;;;;;;19.72;100.00;102003.91;2070593;28;20281;-68
2023/09/07 00:43:50;;;;;;;0.30;0.20;;;;;;;19.70;100.00;102004.34;2070836;28;20188;-68
2023/09/07 00:44:50;;;;;;;0.37;0.37;;;;;;;19.67;100.00;101999.66;2070420;28;20216;-68
2023/09/07 00:45:51;;;;;;;0.20;0.20;;;;;;;19.62;100.00;102007.91;2071528;28;20189;-68
2023/09/07 00:46:51;;;;;;;0.10;0.10;;;;;;;19.59;100.00;102008.84;2076335;28;20207;-68
2023/09/07 00:47:52;;;;;;;0.20;0.20;;;;;;;19.55;100.00;102005.41;2078150;28;20200;-68
2023/09/07 00:48:53;;;;;;;0.20;0.20;;;;;;;19.41;100.00;101987.06;2072846;28;20201;-68
2023/09/07 00:49:54;;;;;;;0.10;0.10;;;;;;;19.47;100.00;102004.09;2070547;28;20284;-68
2023/09/07 00:50:55;;;;;;;0.27;0.27;;;;;;;19.44;100.00;102008.59;2079050;28;20185;-68
2023/09/07 00:51:55;;;;;;;0.30;0.30;;;;;;;19.23;100.00;101984.13;2076716;28;20484;-68
2023/09/07 00:52:57;;;;;;;0.30;0.30;;;;;;;19.17;100.00;101974.69;2070563;28;20424;-68
2023/09/07 00:53:58;;;;;;;0.20;0.20;;;;;;;18.88;100.00;101939.69;2070629;28;20272;-68
2023/09/07 00:55:04;;;;;;;0.40;0.40;;;;;;;19.32;100.00;102009.47;2079685;28;20428;-68
2023/09/07 00:56:06;;;;;;;0.30;0.20;;;;;;;19.25;100.00;101998.50;2070566;28;20830;-68
2023/09/07 00:57:07;;;;;;;0.20;0.20;;;;;;;19.28;100.00;102010.84;2070565;28;20432;-68
2023/09/07 00:58:08;;;;;;;0.17;0.17;;;;;;;19.25;100.00;102009.72;2070687;28;20485;-68
2023/09/07 00:59:09;;;;;;;0.10;0.10;;;;;;;19.27;100.00;102012.09;2070539;28;20236;-68
2023/09/07 01:00:10;;;;;;;0.60;0.60;;;;;;;19.09;100.00;101987.44;2070705;28;20221;-68
2023/09/07 01:01:11;;;;;;;0.10;0.10;;;;;;;19.23;100.00;102006.59;2070421;28;21404;-68
2023/09/07 01:02:11;;;;;;;0.23;0.23;;;;;;;19.20;100.00;102006.72;2070557;28;20842;-68
2023/09/07 01:03:12;;;;;;;0.30;0.30;;;;;;;19.20;100.00;102007.50;2070301;28;20537;-68
2023/09/07 01:04:12;;;;;;;0.10;0.10;;;;;;;19.19;100.00;102011.53;2071318;28;20275;-68
2023/09/07 01:05:13;;;;;;;0.30;0.30;;;;;;;19.21;100.00;102013.91;2070462;28;20896;-68
2023/09/07 01:06:20;;;;;;;0.10;0.10;;;;;;;19.17;100.00;102011.22;2070520;28;20212;-68
2023/09/07 01:07:25;;;;;;;0.13;0.13;;;;;;;19.17;100.00;102014.03;2072826;28;20185;-68
2023/09/07 01:08:56;;;;;;;0.37;0.20;;;;;;;19.17;100.00;102007.63;2073279;28;20479;-68
2023/09/07 01:09:59;;;;;;;0.23;0.20;;;;;;;19.16;100.00;102009.66;2077200;28;20436;-68
2023/09/07 01:10:59;;;;;;;0.27;0.23;;;;;;;19.16;100.00;102009.66;2070256;28;20983;-68
2023/09/07 01:12:00;;;;;;;0.67;0.30;;;;;;;19.16;100.00;102018.09;2076715;28;20800;-68
2023/09/07 01:13:00;;;;;;;0.53;0.53;;;;;;;19.15;100.00;102012.91;2071978;28;20568;-68
2023/09/07 01:14:00;;;;;;;0.30;0.30;;;;;;;19.02;100.00;102004.56;2070695;28;20185;-68
2023/09/07 01:15:01;;;;;;;0.30;0.30;;;;;;;18.97;100.00;101998.72;2070407;28;20276;-68
2023/09/07 01:16:02;;;;;;;0.10;0.10;;;;;;;19.00;100.00;102004.25;2069883;28;20218;-68
2023/09/07 01:17:04;;;;;;;0.30;0.30;;;;;;;19.07;100.00;102020.81;2069511;28;20286;-68
2023/09/07 01:18:07;;;;;;;0.20;0.20;;;;;;;18.86;100.00;101990.72;2070571;28;20186;-68
2023/09/07 01:19:09;;;;;;;0.17;0.17;;;;;;;19.02;100.00;102020.63;2070961;28;20813;-68
2023/09/07 01:20:12;;;;;;;0.30;0.30;;;;;;;19.04;100.00;102018.91;2070747;28;20952;-68
2023/09/07 01:21:14;;;;;;;0.33;0.30;;;;;;;19.01;100.00;102019.06;2071573;28;20476;-68
2023/09/07 01:22:14;;;;;;;0.10;0.10;;;;;;;18.97;100.00;102010.75;2070692;28;20501;-68
2023/09/07 01:23:15;;;;;;;0.10;0.10;;;;;;;18.18;100.00;101912.13;2070255;28;21027;-68
2023/09/07 01:24:17;;;;;;;0.40;0.40;;;;;;;18.83;100.00;102021.75;2081725;28;20193;-68
2023/09/07 01:25:17;;;;;;;0.23;0.20;;;;;;;18.85;100.00;102027.69;2077021;28;20216;-68
2023/09/07 01:26:18;;;;;;;0.23;0.20;;;;;;;18.84;100.00;102018.44;2077081;28;20422;-68
2023/09/07 01:27:18;;;;;;;1.13;0.70;;;;;;;18.81;100.00;102016.56;2070138;28;20193;-68
2023/09/07 01:28:21;;;;;;;0.17;0.17;;;;;;;18.76;100.00;102010.75;2071297;28;20647;-68
2023/09/07 01:29:21;;;;;;;0.10;0.10;;;;;;;18.81;100.00;102013.75;2076931;28;20180;-68
2023/09/07 01:30:22;;;;;;;0.67;0.67;;;;;;;18.84;100.00;102023.31;2072217;28;20531;-68
2023/09/07 01:31:22;;;;;;;0.40;0.20;;;;;;;18.01;100.00;101898.72;2070473;28;20196;-68
2023/09/07 01:32:23;;;;;;;0.17;0.17;;;;;;;18.73;100.00;102003.25;2070374;28;20190;-68
2023/09/07 01:33:23;;;;;;;0.17;0.17;;;;;;;18.83;100.00;102016.88;2070286;28;20197;-68
2023/09/07 01:34:24;;;;;;;0.20;0.17;;;;;;;18.85;100.00;102017.25;2070255;28;20280;-68
2023/09/07 01:35:25;;;;;;;0.70;0.70;;;;;;;18.83;100.00;102011.28;2070146;28;20208;-68
2023/09/07 01:36:25;;;;;;;0.30;0.30;;;;;;;18.87;100.00;102011.94;2070716;28;20339;-68
2023/09/07 01:37:26;;;;;;;0.13;0.13;;;;;;;18.86;100.00;102012.38;2077334;28;20471;-68
2023/09/07 01:38:26;;;;;;;0.10;0.10;;;;;;;18.91;100.00;102015.41;2078305;28;20264;-68
2023/09/07 01:39:27;;;;;;;0.20;0.20;;;;;;;18.89;100.00;102017.09;2072976;28;20189;-68
2023/09/07 01:40:28;;;;;;;0.00;0.00;;;;;;;18.92;100.00;102031.00;2074585;28;20188;-68
2023/09/07 01:41:29;;;;;;;0.20;0.20;;;;;;;18.89;100.00;102015.06;2075276;28;20670;-68
2023/09/07 01:42:29;;;;;;;0.10;0.10;;;;;;;18.87;100.00;102020.38;2070187;28;20855;-68
2023/09/07 01:43:29;;;;;;;0.20;0.20;;;;;;;18.84;100.00;102017.69;2070374;28;20182;-68
2023/09/07 01:44:30;;;;;;;0.10;0.10;;;;;;;18.77;100.00;102015.91;2070903;28;20213;-68
2023/09/07 01:45:30;;;;;;;0.10;0.10;;;;;;;18.20;100.00;101920.84;2070229;28;20199;-68
2023/09/07 01:46:30;;;;;;;0.17;0.17;;;;;;;18.37;100.00;101941.94;2070099;28;20243;-68
2023/09/07 01:47:31;;;;;;;0.13;0.13;;;;;;;18.83;100.00;102018.94;2071314;28;20193;-68
2023/09/07 01:48:31;;;;;;;0.20;0.20;;;;;;;18.80;100.00;102019.81;2073873;28;20221;-68
2023/09/07 01:49:32;;;;;;;0.10;0.10;;;;;;;18.80;100.00;102017.03;2073126;28;20596;-68
2023/09/07 01:50:32;;;;;;;0.23;0.23;;;;;;;18.74;100.00;102018.84;2076149;28;20228;-68
2023/09/07 01:51:33;;;;;;;0.10;0.10;;;;;;;18.75;100.00;102006.38;2070150;28;20182;-68
2023/09/07 01:52:33;;;;;;;0.40;0.23;;;;;;;18.69;100.00;102011.78;2071026;28;20189;-68
2023/09/07 01:53:34;;;;;;;0.10;0.10;;;;;;;18.66;100.00;102014.72;2078015;28;20655;-68
2023/09/07 01:54:34;;;;;;;0.20;0.20;;;;;;;18.64;100.00;102012.38;2071777;28;20555;-68
2023/09/07 01:55:35;;;;;;;0.10;0.10;;;;;;;18.64;100.00;102009.56;2070164;28;20193;-68
2023/09/07 01:56:35;;;;;;;0.50;0.50;;;;;;;18.61;100.00;102006.84;2069886;28;20192;-68
2023/09/07 01:57:36;;;;;;;0.13;0.10;;;;;;;18.62;100.00;102005.66;2070226;28;20194;-68
2023/09/07 01:58:37;;;;;;;0.30;0.30;;;;;;;18.62;100.00;102011.25;2070132;28;20190;-68
2023/09/07 01:59:37;;;;;;;0.67;0.33;;;;;;;18.59;100.00;102006.53;2070267;28;20185;-68
2023/09/07 02:00:38;;;;;;;0.10;0.10;;;;;;;18.63;100.00;102010.78;2070668;28;20922;-68
2023/09/07 02:01:40;;;;;;;0.10;0.10;;;;;;;18.58;100.00;102008.56;2071054;28;20178;-68
2023/09/07 02:02:40;;;;;;;0.93;0.50;;;;;;;18.57;100.00;102009.03;2070079;28;20475;-69
2023/09/07 02:03:41;;;;;;;0.43;0.43;;;;;;;18.56;100.00;102013.06;2070072;28;20439;-68
2023/09/07 02:04:45;;;;;;;0.53;0.47;;;;;;;18.56;100.00;102013.84;2070235;28;20279;-68
2023/09/07 02:05:46;;;;;;;0.10;0.10;;;;;;;18.38;100.00;101982.03;2073955;28;20327;-68
2023/09/07 02:06:46;;;;;;;0.23;0.23;;;;;;;18.51;100.00;102006.00;2070053;28;20452;-68
2023/09/07 02:07:49;;;;;;;0.10;0.10;;;;;;;18.54;100.00;102009.94;2070213;28;20205;-68
2023/09/07 02:08:50;;;;;;;0.77;0.70;;;;;;;18.44;100.00;101991.44;2076827;28;20256;-68
2023/09/07 02:09:51;;;;;;;0.37;0.30;;;;;;;18.51;100.00;102002.41;2070226;28;20502;-68
2023/09/07 02:10:51;;;;;;;0.10;0.10;;;;;;;18.48;100.00;102006.91;2070870;28;20722;-68
2023/09/07 02:11:52;;;;;;;0.20;0.20;;;;;;;18.48;100.00;102003.31;2070466;28;20852;-68
2023/09/07 02:12:52;;;;;;;0.40;0.37;;;;;;;18.46;100.00;102002.97;2070047;28;20580;-68
2023/09/07 02:13:53;;;;;;;0.20;0.20;;;;;;;18.45;100.00;102013.44;2070243;28;20619;-68
2023/09/07 02:14:53;;;;;;;0.10;0.10;;;;;;;18.44;100.00;102009.06;2070101;28;20267;-68
2023/09/07 02:15:53;;;;;;;0.33;0.33;;;;;;;18.44;100.00;102011.88;2069742;28;20232;-68
2023/09/07 02:16:54;;;;;;;0.20;0.20;;;;;;;18.44;100.00;102017.50;2070666;28;20708;-68
2023/09/07 02:17:54;;;;;;;0.10;0.10;;;;;;;17.66;100.00;101891.47;2069390;28;20564;-68
2023/09/07 02:19:09;;;;;;;0.20;0.20;;;;;;;18.42;100.00;102013.56;2070096;28;20648;-68
2023/09/07 02:20:10;;;;;;;0.20;0.20;;;;;;;18.42;100.00;102016.38;2071391;28;20240;-68
2023/09/07 02:21:11;;;;;;;0.17;0.10;;;;;;;18.35;100.00;102011.78;2072617;28;20502;-68
2023/09/07 02:22:11;;;;;;;0.20;0.20;;;;;;;18.33;100.00;102016.28;2071807;28;20436;-68
2023/09/07 02:23:12;;;;;;;0.47;0.40;;;;;;;18.35;100.00;102008.16;2071683;28;20557;-68
2023/09/07 02:24:12;;;;;;;0.10;0.10;;;;;;;18.35;100.00;102011.78;2071741;28;20301;-68
2023/09/07 02:25:13;;;;;;;0.30;0.30;;;;;;;18.02;100.00;101961.97;2071749;28;20198;-68
2023/09/07 02:26:13;;;;;;;0.13;0.13;;;;;;;18.19;100.00;101986.63;2071723;28;20189;-68
2023/09/07 02:27:14;;;;;;;0.20;0.20;;;;;;;18.31;100.00;102013.13;2071406;28;20232;-68
2023/09/07 02:28:14;;;;;;;0.10;0.10;;;;;;;18.30;100.00;102023.53;2071827;28;20197;-68
2023/09/07 02:29:15;;;;;;;0.10;0.10;;;;;;;18.27;100.00;102006.81;2077928;28;20189;-68
2023/09/07 02:30:15;;;;;;;0.10;0.10;;;;;;;17.26;100.00;101863.13;2072786;28;20197;-68
2023/09/07 02:31:16;;;;;;;0.17;0.17;;;;;;;18.23;100.00;102021.75;2071648;28;20266;-68
2023/09/07 02:32:17;;;;;;;0.60;0.60;;;;;;;18.03;100.00;101995.97;2071896;28;20185;-68
2023/09/07 02:33:17;;;;;;;0.30;0.30;;;;;;;18.18;100.00;102019.50;2071337;28;20945;-68
2023/09/07 02:34:18;;;;;;;0.20;0.20;;;;;;;18.15;100.00;102014.03;2071750;28;20201;-68
2023/09/07 02:35:18;;;;;;;0.40;0.40;;;;;;;17.40;100.00;101906.75;2075249;28;20268;-68
2023/09/07 02:36:19;;;;;;;0.20;0.20;;;;;;;18.14;100.00;102018.06;2071200;28;20198;-68
2023/09/07 02:37:19;;;;;;;0.20;0.20;;;;;;;18.16;100.00;102017.63;2072322;28;20196;-68
2023/09/07 02:38:20;;;;;;;0.17;0.17;;;;;;;18.12;100.00;102011.34;2073436;28;20193;-68
2023/09/07 02:39:20;;;;;;;0.33;0.33;;;;;;;18.18;100.00;102016.72;2076688;28;20200;-68
2023/09/07 02:40:20;;;;;;;0.40;0.40;;;;;;;18.17;100.00;102028.38;2074563;28;20235;-68
2023/09/07 02:41:21;;;;;;;0.30;0.30;;;;;;;18.23;100.00;102023.00;2071446;28;20201;-68
2023/09/07 02:42:21;;;;;;;0.17;0.10;;;;;;;18.21;100.00;102023.44;2071660;28;20283;-68
2023/09/07 02:43:22;;;;;;;0.73;0.27;;;;;;;18.22;100.00;102024.22;2071390;28;20177;-68
2023/09/07 02:44:22;;;;;;;0.27;0.20;;;;;;;18.23;100.00;102024.56;2071679;28;20284;-68
2023/09/07 02:45:23;;;;;;;0.10;0.10;;;;;;;18.16;100.00;102018.41;2072273;28;20190;-68
2023/09/07 02:46:23;;;;;;;0.20;0.20;;;;;;;18.23;100.00;102030.16;2071168;28;20315;-68
2023/09/07 02:47:23;;;;;;;0.20;0.20;;;;;;;18.24;100.00;102025.34;2077005;28;20282;-68
2023/09/07 02:48:24;;;;;;;0.13;0.13;;;;;;;18.28;100.00;102028.84;2071697;28;20201;-68
2023/09/07 02:49:24;;;;;;;0.50;0.50;;;;;;;18.30;100.00;102031.97;2071501;28;20274;-68
2023/09/07 02:51:02;;;;;;;0.40;0.33;;;;;;;18.28;100.00;102035.22;2071540;28;20208;-68
2023/09/07 02:52:03;;;;;;;0.20;0.20;;;;;;;18.23;100.00;102023.78;2072785;28;20537;-68
2023/09/07 02:53:04;;;;;;;0.20;0.20;;;;;;;18.27;100.00;102041.28;2071456;28;20451;-68
2023/09/07 02:54:05;;;;;;;0.37;0.37;;;;;;;18.27;100.00;102040.50;2071586;28;20444;-68
2023/09/07 02:55:06;;;;;;;0.83;0.20;;;;;;;18.24;100.00;102040.16;2071739;28;20212;-68
2023/09/07 02:56:07;;;;;;;1.00;0.80;;;;;;;17.72;100.00;101948.56;2070943;28;20184;-68
2023/09/07 02:57:08;;;;;;;0.27;0.20;;;;;;;18.29;100.00;102033.22;2071385;28;20467;-68
2023/09/07 02:58:08;;;;;;;0.30;0.30;;;;;;;18.28;100.00;102037.25;2071424;28;20431;-68
2023/09/07 02:59:08;;;;;;;0.10;0.10;;;;;;;18.28;100.00;102034.44;2072166;28;20231;-68
2023/09/07 03:00:10;;;;;;;0.10;0.10;;;;;;;18.27;100.00;102039.25;2071410;28;20186;-68
2023/09/07 03:01:11;;;;;;;0.10;0.10;;;;;;;18.27;100.00;102035.66;2071755;28;20215;-68
2023/09/07 03:02:12;;;;;;;0.30;0.30;;;;;;;18.26;100.00;102039.72;2071579;28;20436;-68
2023/09/07 03:03:15;;;;;;;0.20;0.20;;;;;;;18.28;100.00;102042.88;2071404;28;20652;-68
2023/09/07 03:04:16;;;;;;;0.20;0.20;;;;;;;18.27;100.00;102037.69;2071291;28;20687;-68
2023/09/07 03:05:16;;;;;;;0.20;0.20;;;;;;;18.27;100.00;102043.31;2071424;28;20511;-68
2023/09/07 03:06:17;;;;;;;0.40;0.40;;;;;;;18.24;100.00;102042.97;2071347;28;20212;-68
2023/09/07 03:07:17;;;;;;;0.87;0.70;;;;;;;18.23;100.00;102049.81;2071989;28;20224;-68
2023/09/07 03:08:18;;;;;;;0.10;0.10;;;;;;;18.19;100.00;102046.34;2072093;28;20535;-68
2023/09/07 03:09:18;;;;;;;0.27;0.27;;;;;;;18.18;100.00;102050.38;2071191;28;20225;-68
2023/09/07 03:10:19;;;;;;;0.47;0.40;;;;;;;18.16;100.00;102045.69;2071738;28;20185;-68
2023/09/07 03:11:19;;;;;;;0.57;0.43;;;;;;;18.12;100.00;102051.38;2071329;28;20611;-68
2023/09/07 03:12:20;;;;;;;0.30;0.30;;;;;;;18.09;100.00;102047.47;2071283;28;20339;-68
2023/09/07 03:13:20;;;;;;;0.23;0.23;;;;;;;18.08;100.00;102044.34;2073296;28;20712;-68
2023/09/07 03:14:56;;;;;;;0.27;0.17;;;;;;;18.08;100.00;102045.13;2078247;28;20181;-68
2023/09/07 03:15:57;;;;;;;0.20;0.20;;;;;;;17.91;100.00;102015.59;2066926;28;20241;-68
2023/09/07 03:16:57;;;;;;;0.10;0.10;;;;;;;18.07;100.00;102046.34;2071131;28;20443;-68
2023/09/07 03:17:58;;;;;;;0.37;0.37;;;;;;;18.04;100.00;102053.63;2071283;28;20217;-68
2023/09/07 03:18:58;;;;;;;0.20;0.20;;;;;;;18.01;100.00;102045.34;2071141;28;20193;-68
2023/09/07 03:19:59;;;;;;;0.10;0.10;;;;;;;17.94;100.00;102043.53;2071341;28;20243;-68
2023/09/07 03:21:02;;;;;;;0.10;0.10;;;;;;;18.00;100.00;102049.38;2074297;28;20243;-68
2023/09/07 03:22:03;;;;;;;0.40;0.40;;;;;;;17.61;100.00;101987.34;2071864;28;20240;-68
2023/09/07 03:24:24;;;;;;;0.30;0.30;;;;;;;17.88;100.00;102052.19;2071591;28;20189;-68
2023/09/07 03:25:24;;;;;;;0.43;0.43;;;;;;;17.67;100.00;102022.81;2071174;28;20438;-68
2023/09/07 03:26:25;;;;;;;0.40;0.40;;;;;;;17.85;100.00;102050.28;2071012;28;20596;-68
2023/09/07 03:27:25;;;;;;;0.10;0.10;;;;;;;17.42;100.00;101983.53;2071107;28;20225;-69
2023/09/07 03:28:26;;;;;;;0.10;0.10;;;;;;;17.52;100.00;102002.03;2072418;28;20193;-68
2023/09/07 03:29:26;;;;;;;0.20;0.20;;;;;;;16.93;100.00;101915.75;2076110;28;20583;-68
2023/09/07 03:30:27;;;;;;;0.10;0.10;;;;;;;17.84;100.00;102057.91;2071139;28;20208;-68
2023/09/07 03:31:27;;;;;;;0.27;0.27;;;;;;;17.84;100.00;102057.91;2070461;28;20190;-68
2023/09/07 03:32:32;;;;;;;0.67;0.67;;;;;;;17.83;100.00;102058.34;2071411;28;20220;-68
2023/09/07 03:33:32;;;;;;;0.10;0.10;;;;;;;17.81;100.00;102060.81;2071562;28;20265;-68
2023/09/07 03:34:33;;;;;;;0.50;0.50;;;;;;;17.78;100.00;102060.47;2071229;28;20508;-68
2023/09/07 03:35:33;;;;;;;0.27;0.17;;;;;;;17.80;100.00;102064.88;2071290;28;20395;-68
2023/09/07 03:36:34;;;;;;;0.30;0.20;;;;;;;17.79;100.00;102066.88;2070657;28;20201;-68
2023/09/07 03:37:35;;;;;;;0.10;0.10;;;;;;;17.78;100.00;102071.69;2070426;28;20200;-68
2023/09/07 03:38:35;;;;;;;0.30;0.30;;;;;;;17.73;100.00;102066.63;2070389;28;20238;-68
2023/09/07 03:39:36;;;;;;;1.97;1.47;;;;;;;17.75;100.00;102068.22;2071125;28;20429;-68
2023/09/07 03:40:36;;;;;;;0.10;0.10;;;;;;;17.73;100.00;102081.88;2071681;28;20564;-68
2023/09/07 03:41:37;;;;;;;0.40;0.30;;;;;;;17.70;100.00;102083.56;2071137;28;20275;-68
2023/09/07 03:42:39;;;;;;;0.53;0.53;;;;;;;17.67;100.00;102076.06;2070840;28;20741;-68
2023/09/07 03:44:58;;;;;;;0.30;0.27;;;;;;;17.67;100.00;102086.50;2071235;28;20468;-68
2023/09/07 03:45:59;;;;;;;0.27;0.27;;;;;;;17.66;100.00;102080.09;2072192;28;20456;-68
2023/09/07 03:47:00;;;;;;;0.20;0.17;;;;;;;17.65;100.00;102086.94;2071065;28;20577;-68
2023/09/07 03:48:01;;;;;;;0.10;0.10;;;;;;;16.69;100.00;101950.81;2070961;28;20196;-68
2023/09/07 03:49:01;;;;;;;0.10;0.10;;;;;;;17.16;100.00;102038.69;2072027;28;20510;-68
2023/09/07 03:50:02;;;;;;;0.30;0.30;;;;;;;17.46;100.00;102092.72;2071115;28;20200;-68
2023/09/07 03:51:06;;;;;;;0.10;0.10;;;;;;;16.78;100.00;101992.19;2071027;28;20589;-68
2023/09/07 03:52:07;;;;;;;0.60;0.30;;;;;;;17.31;100.00;102090.28;2079930;28;20296;-68
2023/09/07 03:53:08;;;;;;;0.10;0.10;;;;;;;16.85;100.00;102012.38;2079905;28;20490;-68
2023/09/07 03:54:08;;;;;;;0.10;0.10;;;;;;;17.35;100.00;102090.19;2072199;28;20544;-68
2023/09/07 03:55:09;;;;;;;0.30;0.10;;;;;;;17.37;100.00;102094.13;2072735;28;20189;-68
2023/09/07 03:56:09;;;;;;;0.30;0.30;;;;;;;17.37;100.00;102091.31;2070889;28;20209;-68
2023/09/07 03:57:09;;;;;;;0.33;0.33;;;;;;;17.34;100.00;102094.22;2074905;28;20816;-68
2023/09/07 03:58:11;;;;;;;0.33;0.33;;;;;;;17.36;100.00;102097.38;2071413;28;20608;-68
2023/09/07 03:59:11;;;;;;;0.30;0.30;;;;;;;17.35;100.00;102090.97;2077730;28;20260;-68
2023/09/07 04:00:13;;;;;;;0.20;0.20;;;;;;;17.39;100.00;102090.91;2070768;28;21069;-68
2023/09/07 04:01:14;;;;;;;0.13;0.13;;;;;;;17.37;100.00;102091.31;2071653;28;20181;-68
2023/09/07 04:02:14;;;;;;;0.20;0.20;;;;;;;17.34;100.00;102085.81;2071200;28;20554;-68
2023/09/07 04:03:15;;;;;;;0.20;0.20;;;;;;;17.20;100.00;102075.78;2070948;28;20447;-68
2023/09/07 04:04:15;;;;;;;0.70;0.30;;;;;;;17.32;100.00;102099.50;2070944;28;20204;-68
2023/09/07 04:05:16;;;;;;;0.20;0.20;;;;;;;17.38;100.00;102100.50;2070790;28;20212;-64
2023/09/07 04:06:16;;;;;;;0.00;0.00;;;;;;;18.24;100.00;102118.72;2062391;28;20627;-65
2023/09/07 04:07:16;;;;;;;0.53;0.30;;;;;;;18.86;100.00;102121.94;2070511;28;20217;-64
2023/09/07 04:08:17;;;;;;;0.10;0.10;;;;;;;19.58;100.00;102122.56;2074435;28;20192;-60
2023/09/07 04:09:17;;;;;;;0.40;0.40;;;;;;;20.15;100.00;102138.84;2077255;28;20186;-63
2023/09/07 04:10:18;;;;;;;0.50;0.50;;;;;;;20.51;100.00;102128.53;2068953;28;20204;-60
2023/09/07 04:11:18;;;;;;;0.20;0.20;;;;;;;20.78;100.00;102134.22;2078124;28;20238;-60
2023/09/07 04:12:18;;;;;;;1.23;1.13;;;;;;;21.04;100.00;102127.09;2073557;28;20221;-59
2023/09/07 04:13:20;;;;;;;0.20;0.20;;;;;;;20.94;100.00;102088.13;2070420;28;20269;-60
2023/09/07 04:14:21;;;;;;;1.03;0.70;;;;;;;21.67;100.00;102117.81;2070523;28;20190;-60
2023/09/07 04:15:21;;;;;;;0.10;0.10;;;;;;;21.51;100.00;102056.91;2070360;28;20507;-60
2023/09/07 04:16:22;;;;;;;0.20;0.20;;;;;;;22.28;100.00;102112.50;2069871;28;20347;-60
2023/09/07 04:17:22;;;;;;;0.10;0.10;;;;;;;22.25;100.00;102085.19;2070323;28;20178;-60
2023/09/07 04:18:23;;;;;;;0.70;0.57;;;;;;;22.61;100.00;102107.63;2071042;28;20193;-60
2023/09/07 04:19:24;;;;;;;0.20;0.20;;;;;;;22.29;100.00;102034.16;2078047;28;20251;-65
2023/09/07 04:20:26;;;;;;;0.30;0.30;;;;;;;22.79;100.00;102103.88;2075240;28;20190;-60
2023/09/07 04:21:26;;;;;;;0.30;0.30;;;;;;;22.80;100.00;102097.75;2073944;28;20690;-60
2023/09/07 04:22:26;;;;;;;0.20;0.20;;;;;;;22.81;100.00;102104.19;2070444;28;20193;-60
2023/09/07 04:23:27;;;;;;;0.63;0.40;;;;;;;22.79;100.00;102104.69;2070450;28;20717;-60
2023/09/07 04:24:27;;;;;;;0.10;0.10;;;;;;;22.81;100.00;102096.50;2070516;28;20667;-60
2023/09/07 04:25:28;;;;;;;0.20;0.20;;;;;;;22.46;100.00;102041.78;2073141;28;20173;-59
2023/09/07 04:26:28;;;;;;;0.20;0.20;;;;;;;22.69;100.00;102045.88;2071944;28;20307;-59
2023/09/07 04:27:30;;;;;;;0.00;0.00;;;;;;;23.24;100.00;102095.09;2073782;28;20185;-59
2023/09/07 04:28:31;;;;;;;0.13;0.13;;;;;;;23.29;100.00;102106.50;2072426;28;20273;-59
2023/09/07 04:29:31;;;;;;;0.13;0.13;;;;;;;23.24;100.00;102106.41;2074341;28;21392;-59
2023/09/07 04:30:33;;;;;;;0.77;0.67;;;;;;;22.64;100.00;102035.22;2070910;28;20186;-59
2023/09/07 04:31:34;;;;;;;0.27;0.27;;;;;;;22.77;100.00;102087.41;2075058;28;20659;-59
2023/09/07 04:32:34;;;;;;;0.73;0.60;;;;;;;22.61;100.00;102101.19;2072709;28;20282;-59
2023/09/07 04:33:35;;;;;;;0.10;0.10;;;;;;;22.56;100.00;102096.97;2075303;28;20258;-65
2023/09/07 04:34:35;;;;;;;0.10;0.10;;;;;;;22.65;100.00;102094.09;2073861;28;20192;-65
2023/09/07 04:35:36;;;;;;;0.20;0.20;;;;;;;22.85;100.00;102099.94;2059280;28;21225;-66
2023/09/07 04:36:37;;;;;;;0.20;0.20;;;;;;;22.82;100.00;102091.63;2068418;28;21423;-65
2023/09/07 04:37:37;;;;;;;0.30;0.30;;;;;;;22.64;100.00;102103.06;2070375;28;20217;-66
2023/09/07 04:38:39;;;;;;;0.10;0.10;;;;;;;22.79;100.00;102104.69;2068807;28;20592;-59
2023/09/07 04:39:40;;;;;;;0.20;0.20;;;;;;;22.96;100.00;102105.00;2075567;28;20220;-60
2023/09/07 04:40:40;;;;;;;0.10;0.10;;;;;;;22.77;100.00;102107.19;2073223;28;20659;-64
2023/09/07 04:41:41;;;;;;;1.13;0.27;;;;;;;22.47;100.00;102108.31;2068091;28;20696;-62
2023/09/07 04:42:41;;;;;;;0.20;0.20;;;;;;;22.10;100.00;102106.13;2077786;28;20654;-60
2023/09/07 04:43:45;;;;;;;0.67;0.67;;;;;;;21.71;100.00;102104.38;2069025;28;20247;-62